CYZH

Slave Lake Airport

Slave Lake, Alberta, Canada
METAR CYZH 210400Z AUTO 21005KT 9SM OVC016 13/12 A2983 RMK SLP109 DENSITY ALT 2200FT
Observed Flight Rules
Jul-21 @ 04:00 UTC (23 minutes ago) Marginal Visual Flight Rules
Wind Visibility Clouds
210° at 5 knots 9 miles
  • Overcast at 1,600' AGL
Temperatures Readings
Current 13°C / 55°F
Dewpoint 12°C / 54°F
Humidity 94%
Altimeter 29.83" Hg
Pressure 1010.9 hPa
Elevation 581
METAR CYZH 210400Z AUTO 21005KT 9SM OVC016 13/12 A2983 RMK SLP109 DENSITY ALT 2200FT
Observed Flight Rules
Jul-21 @ 04:00 UTC
(23 minutes ago)
MVFR
Wind Visibility
210° at 5 knots 9 miles
Clouds
  • Overcast at 1,600' AGL
Temperature Dewpoint
13°C / 55°F 12°C / 54°F
Humidity Altimeter Pressure
94% 29.83" Hg 1010.9 hPa